Time;durP1;ratioP1;P1;durP2;ratioP2;P2;SDS_P1;SDS_P2;PMS_P1;PMS_P2;Temp;Humidity;BMP_temperature;BMP_pressure;BME280_temperature;BME280_humidity;BME280_pressure;Samples;Min_cycle;Max_cycle;Signal;HPM_P1;HPM_P2
2022/05/21 00:00:20;;;;;;;0.85;0.30;;;;;;;;;;4995772;28;20034;-81
2022/05/21 00:02:45;;;;;;;0.45;0.32;;;;;;;;;;4977374;28;20125;-81
2022/05/21 00:05:11;;;;;;;0.40;0.28;;;;;;;;;;5025054;28;20116;-82
2022/05/21 00:07:37;;;;;;;0.50;0.20;;;;;;;;;;4975793;28;20038;-83
2022/05/21 00:10:03;;;;;;;0.70;0.30;;;;;;;;;;4977235;28;20041;-80
2022/05/21 00:12:28;;;;;;;0.22;0.15;;;;;;;;;;4976362;28;20030;-82
2022/05/21 00:14:53;;;;;;;0.52;0.22;;;;;;;;;;4976661;28;20445;-81
2022/05/21 00:17:19;;;;;;;0.20;0.20;;;;;;;;;;4979259;28;20041;-81
2022/05/21 00:19:45;;;;;;;0.63;0.40;;;;;;;;;;5011214;28;20029;-82
2022/05/21 00:22:10;;;;;;;1.73;0.75;;;;;;;;;;4977010;28;20123;-82
2022/05/21 00:24:36;;;;;;;1.92;0.55;;;;;;;;;;4977501;28;20107;-80
2022/05/21 00:27:01;;;;;;;1.25;0.85;;;;;;;;;;4977424;28;20489;-81
2022/05/21 00:29:28;;;;;;;0.15;0.10;;;;;;;;;;5009830;28;20113;-79
2022/05/21 00:31:54;;;;;;;0.47;0.20;;;;;;;;;;4976599;28;20536;-80
2022/05/21 00:34:20;;;;;;;0.52;0.30;;;;;;;;;;4991956;28;20038;-84
2022/05/21 00:36:45;;;;;;;0.50;0.30;;;;;;;;;;5007126;28;20045;-80
2022/05/21 00:39:10;;;;;;;0.93;0.40;;;;;;;;;;4978240;28;20153;-80
2022/05/21 00:41:36;;;;;;;0.50;0.30;;;;;;;;;;4977006;28;20064;-82
2022/05/21 00:44:03;;;;;;;0.43;0.30;;;;;;;;;;4977569;28;20037;-80
2022/05/21 00:46:34;;;;;;;0.30;0.20;;;;;;;;;;4975432;28;20030;-82
2022/05/21 00:49:19;;;;;;;0.47;0.30;;;;;;;;;;5025145;28;20396;-80
2022/05/21 00:51:55;;;;;;;0.63;0.28;;;;;;;;;;4993683;28;20042;-81
2022/05/21 00:54:29;;;;;;;0.47;0.20;;;;;;;;;;5010736;28;20029;-83
2022/05/21 00:57:02;;;;;;;0.63;0.30;;;;;;;;;;4995903;28;20037;-81
2022/05/21 01:04:48;;;;;;;0.43;0.30;;;;;;;;;;5064826;23;20061;-85
2022/05/21 01:07:15;;;;;;;0.50;0.20;;;;;;;;;;4956427;28;20100;-86
2022/05/21 01:09:51;;;;;;;0.33;0.20;;;;;;;;;;4953900;28;20037;-84
2022/05/21 01:12:16;;;;;;;0.68;0.35;;;;;;;;;;4952328;28;20278;-81
2022/05/21 01:14:42;;;;;;;2.05;0.35;;;;;;;;;;4952776;28;20045;-83
2022/05/21 01:17:08;;;;;;;0.70;0.40;;;;;;;;;;4950663;28;20034;-85
2022/05/21 01:20:13;;;;;;;0.98;0.40;;;;;;;;;;4957933;28;20050;-84
2022/05/21 01:22:49;;;;;;;0.82;0.50;;;;;;;;;;4981491;28;20073;-84
2022/05/21 01:25:21;;;;;;;0.68;0.32;;;;;;;;;;4969488;28;20030;-83
2022/05/21 01:27:48;;;;;;;0.50;0.30;;;;;;;;;;4948605;28;20046;-83
2022/05/21 01:30:19;;;;;;;0.70;0.22;;;;;;;;;;4966039;28;20720;-83
2022/05/21 01:32:46;;;;;;;0.50;0.22;;;;;;;;;;4972172;28;20117;-82
2022/05/21 01:35:12;;;;;;;0.70;0.40;;;;;;;;;;4953883;28;20043;-81
2022/05/21 01:37:39;;;;;;;1.10;0.52;;;;;;;;;;4953852;28;20562;-84
2022/05/21 01:40:05;;;;;;;1.02;0.55;;;;;;;;;;4969417;28;20038;-83
2022/05/21 01:42:31;;;;;;;1.17;0.32;;;;;;;;;;4953725;28;20042;-82
2022/05/21 01:44:57;;;;;;;1.08;0.50;;;;;;;;;;4954412;28;20042;-82
2022/05/21 01:47:22;;;;;;;0.60;0.35;;;;;;;;;;4971637;28;20039;-81
2022/05/21 01:49:48;;;;;;;0.43;0.30;;;;;;;;;;4970392;28;20088;-82
2022/05/21 01:52:13;;;;;;;0.82;0.40;;;;;;;;;;4952965;28;20034;-83
2022/05/21 01:54:39;;;;;;;1.10;0.70;;;;;;;;;;4953631;28;20046;-82
2022/05/21 01:57:05;;;;;;;0.40;0.30;;;;;;;;;;4965552;28;20085;-80
2022/05/21 01:59:31;;;;;;;0.40;0.30;;;;;;;;;;4947563;28;20034;-84
2022/05/21 02:01:56;;;;;;;1.35;0.60;;;;;;;;;;4954595;28;20034;-82
2022/05/21 02:04:21;;;;;;;0.30;0.20;;;;;;;;;;4966396;28;20492;-86
2022/05/21 02:06:50;;;;;;;0.93;0.40;;;;;;;;;;4947468;28;20062;-86
2022/05/21 02:09:15;;;;;;;1.05;0.55;;;;;;;;;;4965368;28;20078;-84
2022/05/21 02:11:41;;;;;;;0.70;0.32;;;;;;;;;;4953531;28;20464;-83
2022/05/21 02:14:07;;;;;;;1.45;0.50;;;;;;;;;;4954274;28;20426;-83
2022/05/21 02:16:34;;;;;;;0.77;0.30;;;;;;;;;;4954322;28;20041;-84
2022/05/21 02:19:01;;;;;;;0.90;0.40;;;;;;;;;;4966163;28;20062;-83
2022/05/21 02:21:28;;;;;;;0.77;0.32;;;;;;;;;;4962476;28;20035;-82
2022/05/21 02:23:53;;;;;;;1.08;0.57;;;;;;;;;;4980771;28;20069;-82
2022/05/21 02:26:18;;;;;;;0.38;0.20;;;;;;;;;;4952438;28;20030;-84
2022/05/21 02:28:43;;;;;;;0.77;0.40;;;;;;;;;;4953308;28;20043;-83
2022/05/21 02:31:09;;;;;;;0.77;0.40;;;;;;;;;;4959117;28;20057;-85
2022/05/21 02:33:34;;;;;;;0.40;0.30;;;;;;;;;;4959309;28;20035;-83
2022/05/21 02:35:59;;;;;;;0.65;0.30;;;;;;;;;;4957009;28;20030;-88
2022/05/21 02:41:11;;;;;;;0.63;0.38;;;;;;;;;;4972046;28;20539;-84
2022/05/21 02:43:36;;;;;;;0.93;0.50;;;;;;;;;;4954771;28;20045;-84
2022/05/21 02:46:04;;;;;;;0.70;0.30;;;;;;;;;;4952693;28;20039;-82
2022/05/21 02:48:30;;;;;;;0.88;0.45;;;;;;;;;;4971558;28;20043;-87
2022/05/21 02:50:55;;;;;;;0.52;0.32;;;;;;;;;;4956954;28;20421;-87
2022/05/21 02:53:23;;;;;;;0.45;0.30;;;;;;;;;;4967034;28;20100;-83
2022/05/21 02:55:51;;;;;;;2.15;0.60;;;;;;;;;;4955474;28;20045;-85
2022/05/21 02:58:16;;;;;;;0.45;0.30;;;;;;;;;;4945074;28;20457;-86
2022/05/21 03:00:43;;;;;;;1.23;0.40;;;;;;;;;;4968922;28;20034;-88
2022/05/21 03:03:08;;;;;;;1.17;0.68;;;;;;;;;;4976217;28;20125;-86
2022/05/21 03:05:35;;;;;;;0.85;0.47;;;;;;;;;;4957414;28;20122;-84
2022/05/21 03:10:20;;;;;;;0.40;0.30;;;;;;;;;;4970046;28;20496;-83
2022/05/21 03:10:46;;;;;;;0.30;0.20;;;;;;;;;;4971648;28;20457;-82
2022/05/21 03:13:11;;;;;;;0.77;0.60;;;;;;;;;;4954998;28;20042;-82
2022/05/21 03:15:38;;;;;;;0.60;0.43;;;;;;;;;;4968474;28;20062;-86
2022/05/21 03:18:06;;;;;;;0.82;0.40;;;;;;;;;;4971582;28;20046;-89
2022/05/21 03:20:32;;;;;;;0.63;0.40;;;;;;;;;;4966276;28;20100;-81
2022/05/21 03:22:57;;;;;;;0.50;0.25;;;;;;;;;;4956555;28;20034;-85
2022/05/21 03:25:23;;;;;;;0.73;0.35;;;;;;;;;;4955053;28;20067;-84
2022/05/21 03:27:49;;;;;;;0.20;0.15;;;;;;;;;;4955367;28;20053;-89
2022/05/21 03:30:19;;;;;;;0.25;0.20;;;;;;;;;;4969331;28;20045;-85
2022/05/21 03:32:44;;;;;;;0.35;0.20;;;;;;;;;;4956046;28;20042;-85
2022/05/21 03:35:12;;;;;;;0.40;0.20;;;;;;;;;;4955604;28;20509;-85
2022/05/21 03:37:38;;;;;;;0.50;0.28;;;;;;;;;;4963451;28;20046;-88
2022/05/21 03:40:05;;;;;;;0.20;0.20;;;;;;;;;;4951329;28;20066;-84
2022/05/21 03:42:30;;;;;;;0.60;0.30;;;;;;;;;;4951059;28;20045;-83
2022/05/21 03:44:55;;;;;;;0.32;0.20;;;;;;;;;;4972898;28;20041;-86
2022/05/21 03:47:21;;;;;;;0.60;0.30;;;;;;;;;;4956466;28;20113;-85
2022/05/21 03:49:46;;;;;;;0.35;0.25;;;;;;;;;;4948141;28;20046;-88
2022/05/21 03:52:11;;;;;;;1.23;0.57;;;;;;;;;;4964738;28;20038;-87
2022/05/21 03:54:37;;;;;;;0.30;0.20;;;;;;;;;;4968371;28;20043;-85
2022/05/21 03:57:03;;;;;;;0.40;0.25;;;;;;;;;;4955358;28;20035;-82
2022/05/21 03:59:29;;;;;;;0.25;0.20;;;;;;;;;;4952498;28;20036;-84
2022/05/21 04:01:54;;;;;;;0.55;0.25;;;;;;;;;;4954435;28;20432;-84
2022/05/21 04:04:19;;;;;;;1.60;0.47;;;;;;;;;;4954982;28;20049;-86
2022/05/21 04:06:44;;;;;;;2.22;0.95;;;;;;;;;;4954788;28;20043;-87
2022/05/21 04:09:10;;;;;;;0.40;0.20;;;;;;;;;;4951911;28;20100;-85
2022/05/21 04:11:36;;;;;;;0.20;0.17;;;;;;;;;;4947705;28;20049;-84
2022/05/21 04:14:01;;;;;;;0.57;0.35;;;;;;;;;;4955670;28;20037;-82
2022/05/21 04:16:26;;;;;;;0.10;0.10;;;;;;;;;;4949986;28;20035;-85
2022/05/21 04:18:53;;;;;;;0.50;0.30;;;;;;;;;;4954870;28;20169;-87
2022/05/21 04:21:19;;;;;;;0.45;0.30;;;;;;;;;;4965599;28;20039;-83
2022/05/21 04:23:44;;;;;;;0.38;0.22;;;;;;;;;;4949296;28;20042;-85
2022/05/21 04:26:09;;;;;;;0.30;0.20;;;;;;;;;;4965503;28;20061;-85
2022/05/21 04:28:35;;;;;;;0.50;0.30;;;;;;;;;;4969062;28;20129;-83
2022/05/21 04:31:00;;;;;;;0.47;0.30;;;;;;;;;;4955455;28;20481;-85
2022/05/21 04:33:25;;;;;;;0.30;0.28;;;;;;;;;;4968825;28;20042;-79
2022/05/21 04:38:35;;;;;;;0.10;0.10;;;;;;;;;;4968741;28;20069;-80
2022/05/21 04:41:00;;;;;;;0.20;0.20;;;;;;;;;;4954454;28;20061;-77
2022/05/21 04:43:26;;;;;;;0.20;0.20;;;;;;;;;;4953386;28;20114;-79
2022/05/21 04:45:51;;;;;;;0.55;0.30;;;;;;;;;;4950197;28;20046;-77
2022/05/21 04:48:16;;;;;;;0.30;0.20;;;;;;;;;;4953697;28;20118;-78
2022/05/21 04:50:42;;;;;;;0.30;0.20;;;;;;;;;;4955690;28;20613;-79
2022/05/21 04:53:07;;;;;;;0.52;0.30;;;;;;;;;;4953485;28;20117;-80
2022/05/21 04:55:33;;;;;;;0.30;0.28;;;;;;;;;;4957498;28;21386;-79
2022/05/21 04:57:58;;;;;;;0.50;0.20;;;;;;;;;;4952354;28;20485;-79
2022/05/21 05:00:24;;;;;;;0.20;0.17;;;;;;;;;;4953746;28;20113;-79
2022/05/21 05:02:49;;;;;;;0.32;0.20;;;;;;;;;;4963775;28;20470;-78
2022/05/21 05:05:15;;;;;;;0.30;0.20;;;;;;;;;;4955948;28;20037;-79
2022/05/21 05:07:40;;;;;;;0.30;0.20;;;;;;;;;;4954250;28;20093;-79
2022/05/21 05:10:10;;;;;;;0.43;0.30;;;;;;;;;;4965720;28;20041;-79
2022/05/21 05:12:35;;;;;;;0.20;0.20;;;;;;;;;;4947915;28;20126;-79
2022/05/21 05:15:01;;;;;;;0.38;0.20;;;;;;;;;;4952672;28;20210;-78
2022/05/21 05:17:26;;;;;;;0.13;0.13;;;;;;;;;;4952967;28;20058;-78
2022/05/21 05:19:54;;;;;;;0.20;0.20;;;;;;;;;;4950143;28;20117;-78
2022/05/21 05:22:20;;;;;;;0.55;0.38;;;;;;;;;;4966811;28;20043;-77
2022/05/21 05:24:45;;;;;;;0.40;0.20;;;;;;;;;;4945750;28;20044;-77
2022/05/21 05:27:10;;;;;;;0.20;0.20;;;;;;;;;;4952933;28;20146;-77
2022/05/21 05:29:36;;;;;;;0.20;0.20;;;;;;;;;;4964677;28;20046;-77
2022/05/21 05:32:03;;;;;;;0.30;0.22;;;;;;;;;;4952684;28;20034;-79
2022/05/21 05:34:28;;;;;;;0.20;0.20;;;;;;;;;;4945907;28;20037;-78
2022/05/21 05:36:53;;;;;;;0.20;0.20;;;;;;;;;;4953358;28;20039;-78
2022/05/21 05:39:19;;;;;;;0.30;0.20;;;;;;;;;;4953255;28;20839;-76
2022/05/21 05:41:44;;;;;;;0.63;0.32;;;;;;;;;;4961838;28;20041;-78
2022/05/21 05:44:09;;;;;;;0.73;0.40;;;;;;;;;;4964874;28;20116;-78
2022/05/21 05:46:35;;;;;;;0.65;0.30;;;;;;;;;;4953090;28;20449;-78
2022/05/21 05:49:01;;;;;;;2.08;0.43;;;;;;;;;;4965577;28;20040;-76
2022/05/21 05:51:27;;;;;;;0.75;0.32;;;;;;;;;;4965783;28;20074;-77
2022/05/21 05:53:53;;;;;;;0.52;0.22;;;;;;;;;;4956059;28;20070;-77
2022/05/21 05:56:19;;;;;;;0.60;0.30;;;;;;;;;;4964507;28;20050;-78
2022/05/21 06:01:28;;;;;;;0.63;0.32;;;;;;;;;;4968381;28;20122;-77
2022/05/21 06:03:53;;;;;;;0.10;0.10;;;;;;;;;;4944807;28;20058;-77
2022/05/21 06:06:19;;;;;;;0.52;0.30;;;;;;;;;;4951740;28;20041;-80
2022/05/21 06:08:45;;;;;;;1.00;0.52;;;;;;;;;;4956407;28;20053;-76
2022/05/21 06:11:11;;;;;;;0.17;0.17;;;;;;;;;;4971042;28;20508;-77
2022/05/21 06:13:37;;;;;;;0.20;0.20;;;;;;;;;;4968498;28;20050;-77
2022/05/21 06:16:03;;;;;;;0.47;0.28;;;;;;;;;;4956774;28;20034;-77
2022/05/21 06:18:28;;;;;;;0.40;0.22;;;;;;;;;;4973357;28;20044;-79
2022/05/21 06:20:53;;;;;;;0.43;0.30;;;;;;;;;;4954453;28;20042;-77
2022/05/21 06:23:22;;;;;;;0.52;0.30;;;;;;;;;;4948417;28;21143;-77
2022/05/21 06:25:47;;;;;;;0.90;0.35;;;;;;;;;;4958259;28;20037;-78
2022/05/21 06:28:13;;;;;;;0.63;0.30;;;;;;;;;;4942234;28;20042;-78
2022/05/21 06:30:40;;;;;;;0.35;0.20;;;;;;;;;;4955921;28;20058;-77
2022/05/21 06:33:19;;;;;;;0.95;0.38;;;;;;;;;;4957426;28;20039;-77
2022/05/21 06:35:46;;;;;;;0.52;0.30;;;;;;;;;;4958072;28;20601;-78
2022/05/21 06:38:12;;;;;;;0.50;0.30;;;;;;;;;;4955355;28;20586;-79
2022/05/21 06:40:37;;;;;;;0.68;0.32;;;;;;;;;;4969631;28;20075;-79
2022/05/21 06:43:03;;;;;;;0.22;0.20;;;;;;;;;;4959184;28;20374;-79
2022/05/21 06:45:29;;;;;;;0.55;0.30;;;;;;;;;;4955675;28;20173;-79
2022/05/21 06:48:00;;;;;;;0.20;0.20;;;;;;;;;;4957021;28;20450;-79
2022/05/21 06:50:25;;;;;;;0.63;0.28;;;;;;;;;;4968704;28;20040;-82
2022/05/21 06:52:51;;;;;;;1.25;0.35;;;;;;;;;;4954379;28;20035;-79
2022/05/21 06:55:17;;;;;;;0.50;0.25;;;;;;;;;;4971079;28;20042;-78
2022/05/21 06:57:42;;;;;;;0.43;0.20;;;;;;;;;;4955826;28;20069;-77
2022/05/21 07:00:07;;;;;;;0.10;0.10;;;;;;;;;;4947339;28;20108;-80
2022/05/21 07:02:33;;;;;;;0.38;0.20;;;;;;;;;;4950978;28;20414;-79
2022/05/21 07:07:45;;;;;;;0.25;0.17;;;;;;;;;;4961784;28;20468;-79
2022/05/21 07:10:16;;;;;;;0.10;0.10;;;;;;;;;;4959278;28;20572;-77
2022/05/21 07:12:41;;;;;;;0.15;0.10;;;;;;;;;;4973341;28;20069;-78
2022/05/21 07:15:07;;;;;;;0.17;0.17;;;;;;;;;;4955952;28;20069;-78
2022/05/21 07:17:32;;;;;;;0.60;0.30;;;;;;;;;;4982846;28;20030;-78
2022/05/21 07:19:57;;;;;;;0.30;0.20;;;;;;;;;;4969601;28;20386;-77
2022/05/21 07:22:23;;;;;;;0.45;0.20;;;;;;;;;;4983323;28;20042;-78
2022/05/21 07:24:48;;;;;;;0.40;0.20;;;;;;;;;;4970016;28;20046;-79
2022/05/21 07:27:16;;;;;;;0.10;0.10;;;;;;;;;;4966191;28;20043;-80
2022/05/21 07:29:43;;;;;;;0.20;0.20;;;;;;;;;;4956593;28;20169;-78
2022/05/21 07:32:17;;;;;;;0.13;0.10;;;;;;;;;;4966232;28;20039;-78
2022/05/21 07:34:42;;;;;;;0.43;0.30;;;;;;;;;;4964027;28;20291;-78
2022/05/21 07:37:07;;;;;;;0.95;0.40;;;;;;;;;;4960697;28;20042;-79
2022/05/21 07:39:32;;;;;;;0.38;0.20;;;;;;;;;;4967983;28;20043;-78
2022/05/21 07:41:58;;;;;;;0.35;0.20;;;;;;;;;;4953324;28;20043;-79
2022/05/21 07:44:23;;;;;;;0.30;0.17;;;;;;;;;;4953978;28;20033;-78
2022/05/21 07:46:51;;;;;;;0.30;0.30;;;;;;;;;;4964622;28;20058;-79
2022/05/21 07:49:16;;;;;;;0.80;0.47;;;;;;;;;;4956705;28;20200;-80
2022/05/21 07:51:42;;;;;;;0.57;0.17;;;;;;;;;;4967542;28;20568;-77
2022/05/21 07:54:07;;;;;;;0.40;0.20;;;;;;;;;;4967431;28;20034;-79
2022/05/21 07:56:32;;;;;;;0.43;0.20;;;;;;;;;;4952732;28;20057;-79
2022/05/21 07:58:58;;;;;;;0.70;0.20;;;;;;;;;;4956509;28;20509;-80
2022/05/21 08:01:23;;;;;;;0.90;0.20;;;;;;;;;;4955657;28;20773;-81
2022/05/21 08:03:48;;;;;;;0.20;0.10;;;;;;;;;;4948389;28;20153;-78
2022/05/21 08:06:15;;;;;;;0.93;0.40;;;;;;;;;;4944734;28;20034;-78
2022/05/21 08:08:40;;;;;;;0.35;0.20;;;;;;;;;;4973281;28;20050;-79
2022/05/21 08:11:07;;;;;;;1.25;0.40;;;;;;;;;;4969348;28;20077;-83
2022/05/21 08:13:41;;;;;;;1.03;0.27;;;;;;;;;;4983359;28;20045;-87
2022/05/21 08:16:06;;;;;;;0.70;0.25;;;;;;;;;;4961319;28;20707;-80
2022/05/21 08:18:31;;;;;;;0.55;0.30;;;;;;;;;;4967610;28;20034;-78
2022/05/21 08:20:58;;;;;;;0.57;0.30;;;;;;;;;;4953442;28;20034;-85
2022/05/21 08:28:51;;;;;;;2.10;0.30;;;;;;;;;;4972964;28;20046;-82
2022/05/21 08:31:17;;;;;;;0.70;0.20;;;;;;;;;;4952748;28;20030;-82
2022/05/21 08:33:43;;;;;;;0.63;0.40;;;;;;;;;;4969493;28;20057;-85
2022/05/21 08:36:08;;;;;;;0.80;0.28;;;;;;;;;;4959359;28;20087;-83
2022/05/21 08:38:34;;;;;;;0.50;0.20;;;;;;;;;;4959926;28;20041;-85
2022/05/21 08:41:10;;;;;;;0.08;0.05;;;;;;;;;;4958594;28;20045;-82
2022/05/21 08:43:52;;;;;;;0.30;0.10;;;;;;;;;;4972246;28;20038;-80
2022/05/21 08:46:36;;;;;;;0.40;0.10;;;;;;;;;;4973449;28;20124;-80
2022/05/21 08:49:06;;;;;;;0.28;0.13;;;;;;;;;;4971713;28;20093;-79
2022/05/21 08:51:35;;;;;;;0.40;0.20;;;;;;;;;;4971187;28;20038;-78
2022/05/21 08:54:03;;;;;;;1.90;0.40;;;;;;;;;;4956314;28;20046;-86
2022/05/21 08:56:29;;;;;;;2.42;0.40;;;;;;;;;;4956201;28;20096;-88
2022/05/21 08:59:04;;;;;;;0.47;0.17;;;;;;;;;;4978639;28;20472;-90
2022/05/21 09:01:34;;;;;;;0.90;0.28;;;;;;;;;;4944149;28;20113;-86
2022/05/21 09:03:59;;;;;;;0.70;0.20;;;;;;;;;;4967043;28;20090;-84
2022/05/21 09:06:42;;;;;;;0.52;0.30;;;;;;;;;;4956756;28;20462;-82
2022/05/21 09:09:38;;;;;;;0.70;0.40;;;;;;;;;;4968330;28;20509;-81
2022/05/21 09:12:17;;;;;;;0.60;0.30;;;;;;;;;;4982150;28;20125;-79
2022/05/21 09:14:46;;;;;;;0.55;0.30;;;;;;;;;;4954716;28;20457;-79
2022/05/21 09:17:17;;;;;;;1.00;0.40;;;;;;;;;;4969748;28;20031;-81
2022/05/21 09:20:03;;;;;;;0.20;0.20;;;;;;;;;;4967720;28;20039;-81
2022/05/21 09:22:29;;;;;;;0.70;0.30;;;;;;;;;;4971169;28;20493;-84
2022/05/21 09:24:57;;;;;;;0.60;0.30;;;;;;;;;;4955860;28;20034;-82
2022/05/21 09:27:34;;;;;;;0.85;0.45;;;;;;;;;;4969537;28;20383;-81
2022/05/21 09:30:24;;;;;;;0.88;0.32;;;;;;;;;;4964319;28;20114;-83
2022/05/21 09:32:56;;;;;;;0.47;0.30;;;;;;;;;;4970096;28;20042;-85
2022/05/21 09:35:33;;;;;;;0.60;0.30;;;;;;;;;;4968831;28;20135;-83
2022/05/21 09:38:14;;;;;;;0.20;0.20;;;;;;;;;;4971352;28;20089;-82
2022/05/21 09:40:40;;;;;;;0.65;0.38;;;;;;;;;;4949202;28;20281;-83
2022/05/21 09:46:22;;;;;;;0.52;0.30;;;;;;;;;;4973419;28;20058;-81
2022/05/21 09:48:49;;;;;;;0.93;0.43;;;;;;;;;;4961967;28;20154;-85
2022/05/21 09:51:24;;;;;;;1.20;0.50;;;;;;;;;;4965892;28;20490;-83
2022/05/21 09:53:50;;;;;;;0.93;0.40;;;;;;;;;;4964638;28;20046;-81
2022/05/21 09:56:22;;;;;;;0.55;0.30;;;;;;;;;;4957899;28;20026;-82
2022/05/21 09:58:50;;;;;;;1.33;0.70;;;;;;;;;;4956857;28;20046;-83
2022/05/21 10:01:33;;;;;;;1.42;0.57;;;;;;;;;;4960726;28;20501;-86
2022/05/21 10:03:59;;;;;;;1.35;0.65;;;;;;;;;;4976382;28;20136;-80
2022/05/21 10:06:31;;;;;;;1.55;0.82;;;;;;;;;;4958397;28;20440;-84
2022/05/21 10:12:04;;;;;;;1.67;0.75;;;;;;;;;;4963933;28;20064;-84
2022/05/21 10:14:42;;;;;;;1.30;0.47;;;;;;;;;;4952240;28;20113;-86
2022/05/21 10:17:28;;;;;;;1.75;0.70;;;;;;;;;;4975631;28;20129;-88
2022/05/21 10:20:00;;;;;;;1.77;0.70;;;;;;;;;;4969756;28;20054;-85
2022/05/21 10:22:47;;;;;;;2.20;0.85;;;;;;;;;;4976716;28;20428;-84
2022/05/21 10:25:18;;;;;;;1.52;0.68;;;;;;;;;;4987100;28;20408;-83
2022/05/21 10:28:05;;;;;;;1.40;0.70;;;;;;;;;;4961914;28;20091;-83
2022/05/21 10:31:08;;;;;;;1.60;0.70;;;;;;;;;;4971869;28;20086;-82
2022/05/21 10:34:03;;;;;;;2.33;0.90;;;;;;;;;;4964344;28;20038;-86
2022/05/21 10:37:00;;;;;;;1.63;0.70;;;;;;;;;;4979401;28;20146;-82
2022/05/21 10:39:35;;;;;;;3.25;1.00;;;;;;;;;;4974302;28;20377;-90
2022/05/21 10:42:21;;;;;;;1.58;0.70;;;;;;;;;;4969366;28;20038;-87
2022/05/21 10:45:05;;;;;;;1.80;0.50;;;;;;;;;;4970767;28;20043;-85
2022/05/21 10:48:01;;;;;;;1.63;0.77;;;;;;;;;;4955659;28;20042;-92
2022/05/21 10:50:51;;;;;;;1.97;0.87;;;;;;;;;;4971158;28;20493;-90
2022/05/21 10:53:35;;;;;;;1.73;0.70;;;;;;;;;;4972446;28;20121;-89
2022/05/21 10:56:06;;;;;;;1.75;0.70;;;;;;;;;;4967470;28;20035;-88
2022/05/21 10:58:59;;;;;;;1.50;0.68;;;;;;;;;;4966642;28;20089;-90
2022/05/21 11:01:57;;;;;;;1.15;0.50;;;;;;;;;;4952110;28;20031;-88
2022/05/21 11:04:33;;;;;;;1.13;0.57;;;;;;;;;;4947917;28;20101;-91
2022/05/21 11:07:16;;;;;;;2.13;0.85;;;;;;;;;;4945002;28;20482;-92
2022/05/21 11:10:11;;;;;;;1.67;1.10;;;;;;;;;;4965270;28;20051;-88
2022/05/21 11:12:53;;;;;;;1.70;0.70;;;;;;;;;;4973337;28;20446;-90
2022/05/21 11:15:44;;;;;;;1.35;0.80;;;;;;;;;;4979618;28;20050;-90
2022/05/21 11:18:17;;;;;;;1.88;0.57;;;;;;;;;;4960425;28;20378;-87
2022/05/21 11:21:12;;;;;;;1.85;0.90;;;;;;;;;;4965414;28;20043;-91
2022/05/21 11:23:57;;;;;;;1.67;0.60;;;;;;;;;;4951823;28;20063;-89
2022/05/21 11:26:32;;;;;;;1.23;0.50;;;;;;;;;;4963745;28;20031;-87
2022/05/21 11:29:12;;;;;;;1.70;0.80;;;;;;;;;;4968122;28;20049;-87
2022/05/21 11:37:50;;;;;;;1.38;0.70;;;;;;;;;;4965021;28;20402;-84
2022/05/21 11:40:51;;;;;;;2.38;1.15;;;;;;;;;;4943107;28;20035;-87
2022/05/21 11:43:21;;;;;;;1.20;0.60;;;;;;;;;;4960866;28;20644;-84
2022/05/21 11:46:10;;;;;;;1.83;0.80;;;;;;;;;;4961644;28;20059;-88
2022/05/21 11:48:35;;;;;;;1.95;0.60;;;;;;;;;;4953018;28;20043;-89
2022/05/21 11:51:22;;;;;;;1.25;0.65;;;;;;;;;;4945147;28;20045;-88
2022/05/21 11:53:48;;;;;;;1.13;0.55;;;;;;;;;;4965135;28;20074;-84
2022/05/21 11:56:15;;;;;;;1.55;0.60;;;;;;;;;;4957989;28;20527;-89
2022/05/21 11:58:58;;;;;;;0.93;0.40;;;;;;;;;;4962285;28;20541;-90
2022/05/21 12:01:44;;;;;;;1.27;0.70;;;;;;;;;;4965286;28;20126;-89
2022/05/21 12:04:47;;;;;;;0.60;0.30;;;;;;;;;;4947676;28;20127;-89
2022/05/21 12:07:43;;;;;;;3.40;0.70;;;;;;;;;;4943589;28;20054;-88
2022/05/21 12:10:16;;;;;;;0.77;0.40;;;;;;;;;;4952521;28;20512;-85
2022/05/21 12:13:16;;;;;;;1.27;0.70;;;;;;;;;;4933889;28;20529;-83
2022/05/21 12:15:50;;;;;;;0.85;0.43;;;;;;;;;;4945086;28;20139;-85
2022/05/21 12:18:44;;;;;;;0.85;0.50;;;;;;;;;;4931744;28;20039;-85
2022/05/21 12:21:43;;;;;;;1.00;0.50;;;;;;;;;;4948347;28;20086;-84
2022/05/21 12:24:27;;;;;;;1.55;0.55;;;;;;;;;;4946411;28;20043;-86
2022/05/21 12:27:11;;;;;;;1.63;0.77;;;;;;;;;;4929907;28;20035;-91
2022/05/21 12:29:43;;;;;;;0.93;0.45;;;;;;;;;;4941482;28;20054;-86
2022/05/21 12:32:13;;;;;;;1.10;0.65;;;;;;;;;;4921160;28;20051;-92
2022/05/21 12:34:56;;;;;;;1.58;0.65;;;;;;;;;;4931122;28;20039;-78
2022/05/21 12:37:24;;;;;;;5.35;1.90;;;;;;;;;;4946804;28;20039;-78
2022/05/21 12:40:01;;;;;;;15.32;6.53;;;;;;;;;;4950618;28;20040;-78
2022/05/21 12:42:43;;;;;;;6.43;3.17;;;;;;;;;;4942250;28;20837;-78
2022/05/21 12:45:11;;;;;;;3.78;1.65;;;;;;;;;;4929265;28;20486;-78
2022/05/21 12:47:44;;;;;;;3.83;2.17;;;;;;;;;;4947111;28;20043;-78
2022/05/21 12:50:20;;;;;;;1.70;1.02;;;;;;;;;;4931567;28;20031;-78
2022/05/21 12:52:58;;;;;;;1.52;0.73;;;;;;;;;;4929998;28;21043;-78
2022/05/21 12:55:29;;;;;;;3.22;1.70;;;;;;;;;;4934790;28;20077;-78
2022/05/21 12:57:58;;;;;;;0.85;0.40;;;;;;;;;;4936783;28;20030;-78
2022/05/21 13:00:29;;;;;;;1.30;0.40;;;;;;;;;;4946050;28;20022;-80
2022/05/21 13:02:58;;;;;;;0.90;0.40;;;;;;;;;;4933353;28;20082;-78
2022/05/21 13:05:35;;;;;;;0.85;0.47;;;;;;;;;;4964553;28;20081;-78
2022/05/21 13:08:01;;;;;;;;;;;;;;;;;;4951504;28;21028;-80
2022/05/21 13:10:34;;;;;;;0.63;0.38;;;;;;;;;;4953777;28;19917;-83
2022/05/21 13:13:08;;;;;;;0.98;0.43;;;;;;;;;;4954249;28;20041;-81
2022/05/21 13:16:13;;;;;;;0.93;0.40;;;;;;;;;;4953978;28;20030;-80
2022/05/21 13:19:12;;;;;;;1.13;0.50;;;;;;;;;;4924683;28;20050;-81
2022/05/21 13:21:53;;;;;;;0.93;0.40;;;;;;;;;;4982815;28;20049;-80
2022/05/21 13:24:36;;;;;;;1.80;1.10;;;;;;;;;;4951812;28;20034;-78
2022/05/21 13:27:18;;;;;;;1.48;0.52;;;;;;;;;;4965212;28;20038;-81
2022/05/21 13:29:44;;;;;;;8.98;1.02;;;;;;;;;;4967139;28;20520;-81
2022/05/21 13:32:21;;;;;;;0.57;0.30;;;;;;;;;;4965070;28;20035;-83
2022/05/21 13:34:49;;;;;;;1.83;1.00;;;;;;;;;;4964239;28;20045;-80
2022/05/21 13:37:16;;;;;;;0.75;0.40;;;;;;;;;;4953416;28;20786;-83
2022/05/21 13:39:41;;;;;;;1.23;0.40;;;;;;;;;;4939010;28;20498;-81
2022/05/21 13:42:13;;;;;;;2.92;0.95;;;;;;;;;;4956082;28;20045;-80
2022/05/21 13:44:40;;;;;;;0.63;0.28;;;;;;;;;;4951411;28;20038;-79
2022/05/21 13:47:18;;;;;;;1.85;0.50;;;;;;;;;;4951098;28;20034;-80
2022/05/21 13:49:47;;;;;;;1.40;0.70;;;;;;;;;;4949433;28;20090;-81
2022/05/21 13:52:12;;;;;;;1.90;0.35;;;;;;;;;;4955399;28;20110;-82
2022/05/21 13:54:40;;;;;;;1.17;0.38;;;;;;;;;;4946463;28;20073;-81
2022/05/21 13:57:22;;;;;;;1.70;0.98;;;;;;;;;;4954707;28;20039;-81
2022/05/21 13:59:53;;;;;;;0.65;0.30;;;;;;;;;;4948315;28;20041;-81
2022/05/21 14:02:21;;;;;;;0.30;0.20;;;;;;;;;;4963867;28;20038;-81
2022/05/21 14:04:46;;;;;;;0.50;0.30;;;;;;;;;;4962467;28;20492;-80
2022/05/21 14:07:28;;;;;;;2.03;0.20;;;;;;;;;;4963368;28;20046;-81
2022/05/21 14:09:59;;;;;;;1.40;0.30;;;;;;;;;;4965204;28;20157;-81
2022/05/21 14:12:29;;;;;;;0.40;0.20;;;;;;;;;;4962492;28;20034;-80
2022/05/21 14:14:55;;;;;;;0.20;0.13;;;;;;;;;;4959223;28;20074;-81
2022/05/21 14:17:28;;;;;;;0.93;0.30;;;;;;;;;;4977503;28;20034;-82
2022/05/21 14:20:27;;;;;;;0.17;0.10;;;;;;;;;;4968297;28;20125;-82
2022/05/21 14:22:53;;;;;;;2.38;0.75;;;;;;;;;;4958170;28;20051;-82
2022/05/21 14:25:23;;;;;;;1.13;0.38;;;;;;;;;;4956744;28;20037;-81
2022/05/21 14:28:14;;;;;;;1.20;0.20;;;;;;;;;;4974696;28;20047;-79
2022/05/21 14:30:43;;;;;;;1.55;0.30;;;;;;;;;;4966299;28;20042;-81
2022/05/21 14:33:11;;;;;;;1.27;0.50;;;;;;;;;;4951123;28;20121;-81
2022/05/21 14:35:37;;;;;;;0.45;0.20;;;;;;;;;;4983475;28;20050;-81
2022/05/21 14:38:02;;;;;;;0.77;0.32;;;;;;;;;;4967100;28;20134;-81
2022/05/21 14:40:30;;;;;;;0.88;0.30;;;;;;;;;;4956108;28;20118;-79
2022/05/21 14:42:57;;;;;;;;;;;;;;;;;;4972625;28;20046;-81
2022/05/21 14:45:32;;;;;;;0.32;0.20;;;;;;;;;;4948369;28;20325;-80
2022/05/21 14:48:01;;;;;;;0.40;0.20;;;;;;;;;;4979311;28;20090;-81
2022/05/21 14:53:22;;;;;;;0.40;0.22;;;;;;;;;;4968715;28;20512;-80
2022/05/21 14:55:50;;;;;;;0.35;0.25;;;;;;;;;;4953472;28;20497;-80
2022/05/21 14:58:17;;;;;;;0.47;0.30;;;;;;;;;;4961351;28;20121;-80
2022/05/21 15:00:42;;;;;;;0.73;0.30;;;;;;;;;;4954858;28;20038;-78
2022/05/21 15:03:08;;;;;;;0.43;0.17;;;;;;;;;;4968483;28;20101;-82
2022/05/21 15:05:38;;;;;;;0.20;0.20;;;;;;;;;;4969033;28;20030;-82
2022/05/21 15:08:04;;;;;;;0.55;0.30;;;;;;;;;;4949216;28;20130;-81
2022/05/21 15:10:30;;;;;;;0.70;0.30;;;;;;;;;;4971761;28;20173;-81
2022/05/21 15:12:55;;;;;;;0.45;0.30;;;;;;;;;;4956944;28;20121;-80
2022/05/21 15:15:21;;;;;;;0.20;0.20;;;;;;;;;;4956341;28;20038;-81
2022/05/21 15:17:47;;;;;;;2.53;0.55;;;;;;;;;;4956007;28;20454;-81
2022/05/21 15:20:14;;;;;;;0.70;0.28;;;;;;;;;;4955505;28;20065;-82
2022/05/21 15:22:41;;;;;;;0.75;0.50;;;;;;;;;;4951423;28;20497;-81
2022/05/21 15:25:08;;;;;;;0.55;0.38;;;;;;;;;;4970188;28;20045;-80
2022/05/21 15:27:34;;;;;;;0.63;0.23;;;;;;;;;;4930230;28;20027;-80
2022/05/21 15:30:00;;;;;;;0.40;0.25;;;;;;;;;;4969513;28;20485;-79
2022/05/21 15:32:25;;;;;;;0.57;0.30;;;;;;;;;;4955381;28;20027;-82
2022/05/21 15:34:51;;;;;;;0.38;0.20;;;;;;;;;;4962161;28;20050;-82
2022/05/21 15:37:17;;;;;;;0.77;0.50;;;;;;;;;;4952703;28;20038;-77
2022/05/21 15:39:43;;;;;;;0.33;0.20;;;;;;;;;;4969432;28;20038;-81